Time;durP1;ratioP1;P1;durP2;ratioP2;P2;SDS_P1;SDS_P2;PMS_P1;PMS_P2;Temp;Humidity;BMP_temperature;BMP_pressure;BME280_temperature;BME280_humidity;BME280_pressure;Samples;Min_cycle;Max_cycle;Signal;HPM_P1;HPM_P2
2022/04/16 00:00:59;;;;;;;19.92;12.27;;;;;;;12.97;58.50;103203.88;4952387;28;20133;-59
2022/04/16 00:03:24;;;;;;;18.13;12.13;;;;;;;13.07;58.68;103206.84;4941353;28;20289;-59
2022/04/16 00:05:56;;;;;;;19.50;12.32;;;;;;;13.10;58.72;103197.41;4959903;28;20773;-60
2022/04/16 00:08:23;;;;;;;20.25;12.48;;;;;;;13.13;59.23;103207.13;4946279;28;20801;-60
2022/04/16 00:10:49;;;;;;;20.85;13.05;;;;;;;12.86;58.91;103209.50;4950574;28;20147;-59
2022/04/16 00:13:17;;;;;;;21.08;12.73;;;;;;;12.90;58.81;103204.44;4958907;28;20045;-59
2022/04/16 00:15:43;;;;;;;19.80;12.80;;;;;;;12.92;59.17;103207.13;4944294;28;20501;-60
2022/04/16 00:18:09;;;;;;;20.92;13.23;;;;;;;12.81;59.62;103204.03;4939548;28;20051;-58
2022/04/16 00:20:35;;;;;;;20.40;13.32;;;;;;;12.89;58.95;103201.75;4952497;28;20088;-58
2022/04/16 00:23:01;;;;;;;21.25;13.13;;;;;;;12.92;59.11;103207.13;4949301;28;20188;-59
2022/04/16 00:25:26;;;;;;;21.27;12.98;;;;;;;12.88;59.15;103206.09;4951113;28;20058;-58
2022/04/16 00:27:54;;;;;;;20.10;13.13;;;;;;;12.92;59.29;103212.38;4949117;28;20552;-58
2022/04/16 00:30:20;;;;;;;20.70;12.65;;;;;;;12.92;59.15;103212.38;4955285;28;20053;-60
2022/04/16 00:32:45;;;;;;;19.17;13.00;;;;;;;12.95;59.08;103208.13;4957875;28;20157;-59
2022/04/16 00:35:13;;;;;;;20.75;13.02;;;;;;;12.80;59.05;103207.53;4961421;28;20129;-58
2022/04/16 00:37:38;;;;;;;21.25;13.70;;;;;;;12.78;59.48;103216.13;4949920;28;20039;-59
2022/04/16 00:40:04;;;;;;;20.75;12.45;;;;;;;12.94;59.10;103206.34;4953548;28;20113;-60
2022/04/16 00:42:39;;;;;;;21.42;12.90;;;;;;;12.88;59.65;103211.31;4955607;28;20038;-59
2022/04/16 00:45:06;;;;;;;20.65;13.10;;;;;;;12.84;60.20;103221.63;4960926;28;20117;-60
2022/04/16 00:47:31;;;;;;;22.13;13.45;;;;;;;12.89;59.69;103210.50;4956519;28;20042;-59
2022/04/16 00:49:57;;;;;;;21.88;13.65;;;;;;;12.83;59.18;103214.59;4944501;28;21067;-57
2022/04/16 00:52:22;;;;;;;20.88;13.57;;;;;;;12.62;59.84;103209.38;4947030;28;20065;-59
2022/04/16 00:54:50;;;;;;;21.27;14.13;;;;;;;12.66;59.57;103216.50;4950032;28;20104;-59
2022/04/16 00:57:17;;;;;;;22.80;14.07;;;;;;;12.73;59.35;103215.06;4950502;28;20188;-59
2022/04/16 00:59:42;;;;;;;22.17;14.13;;;;;;;12.80;58.91;103211.88;4937562;28;20897;-60
2022/04/16 01:02:09;;;;;;;21.30;14.52;;;;;;;12.74;59.44;103212.50;4946394;28;20054;-59
2022/04/16 01:04:35;;;;;;;28.33;15.10;;;;;;;12.60;59.13;103219.78;4953202;28;20486;-60
2022/04/16 01:07:00;;;;;;;20.65;14.68;;;;;;;12.78;58.82;103217.03;4952800;28;20117;-59
2022/04/16 01:09:25;;;;;;;20.77;14.90;;;;;;;12.64;59.40;103218.16;4944024;28;20502;-59
2022/04/16 01:11:51;;;;;;;21.48;15.02;;;;;;;12.70;58.69;103214.91;4948943;28;20047;-60
2022/04/16 01:14:19;;;;;;;24.63;14.93;;;;;;;12.82;58.39;103211.06;4948489;28;22651;-60
2022/04/16 01:16:45;;;;;;;27.05;15.65;;;;;;;12.58;58.50;103224.03;4954611;28;20042;-60
2022/04/16 01:19:11;;;;;;;24.80;14.98;;;;;;;12.52;58.97;103218.53;4950421;28;20041;-59
2022/04/16 01:21:36;;;;;;;24.10;14.85;;;;;;;12.61;58.68;103218.06;4952594;28;20069;-59
2022/04/16 01:24:02;;;;;;;21.33;14.90;;;;;;;12.54;58.50;103221.22;4941853;28;20042;-59
2022/04/16 01:26:29;;;;;;;24.70;15.27;;;;;;;12.59;58.85;103211.84;4954387;28;20102;-59
2022/04/16 01:28:54;;;;;;;21.73;15.48;;;;;;;12.44;59.25;103212.06;4945064;28;20587;-59
2022/04/16 01:31:19;;;;;;;24.88;15.93;;;;;;;12.48;59.03;103207.88;4950316;28;20054;-59
2022/04/16 01:33:45;;;;;;;22.80;15.68;;;;;;;12.39;58.88;103208.38;4958284;28;20081;-59
2022/04/16 01:36:12;;;;;;;23.27;15.15;;;;;;;12.43;58.94;103206.81;4946416;28;20773;-59
2022/04/16 01:38:37;;;;;;;23.77;15.93;;;;;;;12.52;58.49;103215.94;4948706;28;20061;-60
2022/04/16 01:41:04;;;;;;;22.75;15.93;;;;;;;12.38;58.84;103206.59;4955258;28;20053;-60
2022/04/16 01:43:30;;;;;;;23.15;15.82;;;;;;;12.31;58.85;103201.94;4961710;28;20129;-59
2022/04/16 01:45:56;;;;;;;23.92;15.90;;;;;;;12.05;59.56;103208.63;4952377;28;20039;-56
2022/04/16 01:48:22;;;;;;;22.98;15.77;;;;;;;12.05;59.24;103206.03;4949016;28;20157;-62
2022/04/16 01:50:59;;;;;;;23.33;15.40;;;;;;;11.97;59.11;103194.31;4950207;28;20341;-61
2022/04/16 01:53:24;;;;;;;24.98;16.63;;;;;;;12.00;59.04;103201.41;4953366;28;20523;-58
2022/04/16 01:55:50;;;;;;;24.85;16.83;;;;;;;11.94;59.25;103202.03;4967490;28;20264;-57
2022/04/16 01:58:15;;;;;;;22.63;16.00;;;;;;;11.93;58.69;103204.59;4949408;28;20046;-59
2022/04/16 02:00:41;;;;;;;23.23;15.68;;;;;;;11.81;59.05;103197.09;4951960;28;20050;-59
2022/04/16 02:03:08;;;;;;;21.98;15.60;;;;;;;11.77;59.12;103200.41;4958842;28;20065;-59
2022/04/16 02:05:34;;;;;;;22.10;15.68;;;;;;;11.80;59.16;103205.75;4946038;28;20052;-59
2022/04/16 02:07:59;;;;;;;23.42;16.00;;;;;;;11.69;59.37;103210.47;4951337;28;20047;-60
2022/04/16 02:10:25;;;;;;;23.38;16.70;;;;;;;11.72;59.25;103207.06;4947474;28;20042;-58
2022/04/16 02:12:50;;;;;;;27.17;16.50;;;;;;;11.69;59.71;103210.47;4948840;28;20556;-59
2022/04/16 02:15:15;;;;;;;25.33;16.80;;;;;;;11.66;59.84;103222.47;4959171;28;20504;-58
2022/04/16 02:17:41;;;;;;;22.13;15.95;;;;;;;11.64;59.59;103222.41;4946880;28;20082;-60
2022/04/16 02:20:08;;;;;;;23.98;15.82;;;;;;;11.48;60.50;103221.63;4940656;28;20054;-59
2022/04/16 02:22:46;;;;;;;26.20;15.93;;;;;;;11.43;60.97;103228.34;4960080;28;20054;-57
2022/04/16 02:25:13;;;;;;;23.77;16.15;;;;;;;11.34;61.09;103229.69;4951420;28;20128;-58
2022/04/16 02:27:39;;;;;;;24.80;16.40;;;;;;;11.43;60.78;103228.34;4955358;28;20573;-60
2022/04/16 02:30:10;;;;;;;25.90;16.58;;;;;;;11.38;60.38;103229.03;4954465;28;20051;-59
2022/04/16 02:32:38;;;;;;;24.38;16.02;;;;;;;11.37;60.57;103223.72;4951690;28;20050;-58
2022/04/16 02:35:04;;;;;;;25.05;16.40;;;;;;;11.28;61.17;103236.38;4960010;28;20240;-60
2022/04/16 02:37:30;;;;;;;24.35;16.67;;;;;;;11.14;60.94;103233.09;4958105;28;20057;-59
2022/04/16 02:39:55;;;;;;;24.83;16.48;;;;;;;11.17;61.03;103234.94;4953554;28;20129;-58
2022/04/16 02:42:21;;;;;;;24.73;16.17;;;;;;;11.09;60.82;103242.41;4946024;28;20042;-59
2022/04/16 02:47:30;;;;;;;23.48;16.42;;;;;;;11.02;61.10;103239.41;4952139;28;20490;-59
2022/04/16 02:49:56;;;;;;;23.98;15.75;;;;;;;11.08;60.44;103245.84;4948361;28;20449;-59
2022/04/16 02:52:22;;;;;;;24.67;16.20;;;;;;;10.91;61.17;103246.72;4950368;28;20380;-59
2022/04/16 02:54:48;;;;;;;28.35;17.42;;;;;;;10.87;61.26;103244.75;4952360;28;20877;-58
2022/04/16 02:57:14;;;;;;;24.80;16.63;;;;;;;10.86;61.37;103259.53;4962536;28;20386;-58
2022/04/16 02:59:39;;;;;;;23.92;16.40;;;;;;;10.80;61.71;103254.00;4937491;28;20432;-59
2022/04/16 03:02:05;;;;;;;26.08;16.88;;;;;;;10.79;61.50;103253.94;4945053;28;20057;-61
2022/04/16 03:04:32;;;;;;;25.00;16.02;;;;;;;10.80;61.20;103256.59;4945542;28;20042;-59
2022/04/16 03:06:57;;;;;;;28.88;17.10;;;;;;;10.77;61.39;103259.06;4956417;28;20068;-60
2022/04/16 03:09:23;;;;;;;25.35;16.05;;;;;;;10.81;61.39;103254.88;4948311;28;21570;-59
2022/04/16 03:11:48;;;;;;;26.17;17.10;;;;;;;10.71;61.82;103252.66;4944328;28;20446;-56
2022/04/16 03:19:41;;;;;;;27.25;17.02;;;;;;;10.58;61.96;103248.53;4949857;28;21678;-58
2022/04/16 03:22:07;;;;;;;25.00;16.48;;;;;;;10.45;62.47;103246.09;4944782;28;20593;-59
2022/04/16 03:24:32;;;;;;;28.02;17.67;;;;;;;10.44;62.66;103253.03;4954579;28;20701;-58
2022/04/16 03:26:57;;;;;;;24.73;16.70;;;;;;;10.38;62.87;103250.09;4953303;28;20097;-59
2022/04/16 03:29:23;;;;;;;30.92;17.67;;;;;;;10.31;63.21;103245.38;4949325;28;20073;-59
2022/04/16 03:31:48;;;;;;;25.25;17.50;;;;;;;10.28;63.01;103254.75;4952996;28;20244;-61
2022/04/16 03:34:13;;;;;;;28.98;17.48;;;;;;;10.26;63.51;103248.56;4942517;28;20556;-60
2022/04/16 03:36:39;;;;;;;27.10;17.35;;;;;;;10.24;63.62;103250.22;4953527;28;20096;-60
2022/04/16 03:39:04;;;;;;;26.67;17.73;;;;;;;10.22;63.51;103254.44;4955599;28;20046;-59
2022/04/16 03:41:29;;;;;;;28.02;17.38;;;;;;;10.28;63.66;103259.97;4947615;28;21104;-59
2022/04/16 03:43:55;;;;;;;27.92;17.65;;;;;;;10.18;63.75;103261.22;4950143;28;20043;-60
2022/04/16 03:46:22;;;;;;;28.95;17.30;;;;;;;10.18;63.16;103269.03;4951686;28;20411;-58
2022/04/16 03:48:48;;;;;;;28.52;18.27;;;;;;;10.15;63.66;103263.63;4938742;28;20146;-58
2022/04/16 03:51:13;;;;;;;28.17;18.73;;;;;;;10.10;63.84;103262.47;4946377;28;20110;-59
2022/04/16 03:53:39;;;;;;;29.25;17.77;;;;;;;10.09;63.98;103261.56;4939729;28;20421;-58
2022/04/16 04:01:46;;;;;;;28.65;18.50;;;;;;;9.97;64.23;103280.88;4917576;28;20050;-60
2022/04/16 04:04:11;;;;;;;30.98;18.45;;;;;;;9.95;64.83;103283.38;4950257;28;20073;-58
2022/04/16 04:06:37;;;;;;;27.35;17.63;;;;;;;9.94;64.50;103286.78;4965492;28;20103;-58
2022/04/16 04:09:02;;;;;;;29.13;18.70;;;;;;;9.92;64.99;103282.34;4952715;28;20050;-59
2022/04/16 04:11:28;;;;;;;29.15;17.33;;;;;;;9.90;64.98;103281.34;4956876;28;20037;-58
2022/04/16 04:13:54;;;;;;;30.27;18.33;;;;;;;9.86;64.77;103288.13;4956261;28;20050;-59
2022/04/16 04:16:20;;;;;;;29.95;17.73;;;;;;;9.86;64.90;103282.91;4949420;28;21084;-59
2022/04/16 04:18:45;;;;;;;27.88;17.55;;;;;;;9.85;65.16;103283.72;4965366;28;20401;-59
2022/04/16 04:21:11;;;;;;;28.92;17.75;;;;;;;9.85;64.50;103285.41;4954281;28;20046;-58
2022/04/16 04:23:36;;;;;;;29.63;18.65;;;;;;;9.80;65.15;103289.47;4947819;28;20508;-58
2022/04/16 04:26:03;;;;;;;30.40;17.85;;;;;;;9.85;64.90;103285.41;4955290;28;21352;-60
2022/04/16 04:28:28;;;;;;;29.27;17.70;;;;;;;9.79;65.07;103299.00;4957143;28;20823;-58
2022/04/16 04:30:54;;;;;;;31.80;18.13;;;;;;;9.75;65.46;103299.66;4954770;28;20085;-59
2022/04/16 04:33:19;;;;;;;29.92;18.92;;;;;;;9.71;65.46;103295.06;4960576;28;20050;-58
2022/04/16 04:35:45;;;;;;;32.35;18.20;;;;;;;9.75;65.86;103299.66;4956876;28;20029;-59
2022/04/16 04:38:10;;;;;;;31.10;18.38;;;;;;;9.85;64.78;103295.84;4958064;28;20077;-60
2022/04/16 04:40:35;;;;;;;28.20;17.63;;;;;;;9.80;64.99;103305.13;4945960;28;20452;-59
2022/04/16 04:43:01;;;;;;;29.98;17.80;;;;;;;9.73;65.29;103307.38;4962710;28;20050;-60
2022/04/16 04:45:26;;;;;;;32.42;18.65;;;;;;;9.63;65.74;103307.69;4956589;28;20112;-59
2022/04/16 04:47:51;;;;;;;30.02;18.50;;;;;;;9.68;66.04;103319.25;4958185;28;20046;-59
2022/04/16 04:50:17;;;;;;;31.30;18.45;;;;;;;9.65;65.92;103308.66;4947356;28;20429;-59
2022/04/16 04:52:42;;;;;;;30.98;17.92;;;;;;;9.76;65.43;103309.25;4958307;28;20872;-60
2022/04/16 04:55:10;;;;;;;33.50;19.02;;;;;;;9.81;65.30;103304.31;4948876;28;20301;-59
2022/04/16 04:57:35;;;;;;;29.08;17.98;;;;;;;9.78;65.36;103305.91;4945448;28;20184;-59
2022/04/16 05:00:07;;;;;;;28.08;17.48;;;;;;;9.80;65.28;103308.63;4959207;28;20109;-59
2022/04/16 05:02:44;;;;;;;28.88;17.83;;;;;;;9.86;65.28;103305.44;4957947;28;20050;-60
2022/04/16 05:05:11;;;;;;;27.83;17.77;;;;;;;9.86;64.90;103308.97;4954300;28;20058;-59
2022/04/16 05:07:36;;;;;;;28.42;17.70;;;;;;;9.94;65.12;103310.25;4949283;28;20050;-59
2022/04/16 05:10:03;;;;;;;29.98;17.63;;;;;;;9.95;65.17;103317.25;4932755;28;20046;-60
2022/04/16 05:12:28;;;;;;;29.55;17.83;;;;;;;9.86;65.35;103321.09;4959046;28;20042;-58
2022/04/16 05:14:54;;;;;;;27.38;17.35;;;;;;;9.98;65.10;103317.44;4950403;28;20210;-58
2022/04/16 05:17:19;;;;;;;30.20;17.65;;;;;;;10.01;64.75;103324.50;4959270;28;20166;-59
2022/04/16 05:19:44;;;;;;;30.70;17.85;;;;;;;10.05;64.92;103323.88;4947786;28;20507;-58
2022/04/16 05:22:10;;;;;;;31.20;17.73;;;;;;;9.95;65.32;103332.91;4943776;28;20035;-59
2022/04/16 05:24:35;;;;;;;31.70;18.58;;;;;;;10.15;64.51;103334.00;4947017;28;20493;-60
2022/04/16 05:27:00;;;;;;;33.20;18.58;;;;;;;10.13;64.54;103346.03;4960481;28;20632;-59
2022/04/16 05:29:26;;;;;;;30.20;18.40;;;;;;;10.15;64.61;103341.81;4954938;28;20112;-58
2022/04/16 05:31:51;;;;;;;32.85;18.10;;;;;;;10.14;64.64;103346.13;4957311;28;20050;-59
2022/04/16 05:34:19;;;;;;;31.90;18.60;;;;;;;10.25;64.48;103345.81;4941691;28;21125;-59
2022/04/16 05:36:49;;;;;;;29.33;18.42;;;;;;;10.35;64.31;103348.13;4957821;28;20050;-59
2022/04/16 05:39:16;;;;;;;30.85;17.50;;;;;;;10.45;64.01;103347.81;4959005;28;20489;-59
2022/04/16 05:41:41;;;;;;;31.92;18.42;;;;;;;10.36;64.29;103349.94;4962069;28;20042;-59
2022/04/16 05:44:06;;;;;;;30.65;17.73;;;;;;;10.51;64.11;103342.91;4938815;28;20786;-59
2022/04/16 05:46:32;;;;;;;28.67;17.80;;;;;;;10.49;64.11;103353.25;4963138;28;20080;-59
2022/04/16 05:48:57;;;;;;;29.77;17.95;;;;;;;10.50;64.06;103356.75;4951512;28;20156;-59
2022/04/16 05:51:25;;;;;;;30.63;17.92;;;;;;;10.61;63.92;103355.66;4952801;28;20050;-59
2022/04/16 05:53:53;;;;;;;28.08;17.45;;;;;;;10.75;63.33;103353.72;4954426;28;20453;-59
2022/04/16 05:56:20;;;;;;;29.40;17.90;;;;;;;10.58;63.59;103358.97;4944337;28;20050;-58
2022/04/16 05:58:46;;;;;;;30.80;18.02;;;;;;;10.61;63.83;103363.47;4956503;28;20486;-58
2022/04/16 06:01:12;;;;;;;27.85;18.27;;;;;;;10.69;64.10;103361.25;4942073;28;20681;-57
2022/04/16 06:03:41;;;;;;;30.10;18.25;;;;;;;10.82;63.95;103363.69;4956986;28;20042;-59
2022/04/16 06:06:07;;;;;;;28.73;18.35;;;;;;;10.99;63.78;103363.72;4906444;28;20127;-59
2022/04/16 06:08:33;;;;;;;30.42;18.45;;;;;;;11.15;63.24;103367.13;4956952;28;20477;-58
2022/04/16 06:10:58;;;;;;;28.23;18.27;;;;;;;11.65;62.55;103370.50;4948784;28;20038;-58
2022/04/16 06:13:24;;;;;;;28.98;17.92;;;;;;;12.12;60.49;103367.59;4943906;28;20155;-59
2022/04/16 06:15:49;;;;;;;26.67;18.17;;;;;;;12.85;58.00;103372.63;4961498;28;20057;-59
2022/04/16 06:18:14;;;;;;;28.77;17.67;;;;;;;13.74;55.49;103371.19;4940671;28;20042;-58
2022/04/16 06:20:40;;;;;;;27.65;17.48;;;;;;;14.67;52.21;103368.66;4952237;28;20049;-60
2022/04/16 06:23:17;;;;;;;24.35;16.88;;;;;;;15.28;51.34;103367.34;4960373;28;20484;-59
2022/04/16 06:25:42;;;;;;;24.45;16.45;;;;;;;15.89;49.28;103371.97;4950964;28;20116;-59
2022/04/16 06:28:07;;;;;;;24.67;16.75;;;;;;;16.63;47.26;103374.25;4950105;28;20037;-59
2022/04/16 06:30:33;;;;;;;24.38;17.30;;;;;;;16.31;47.83;103377.66;4953345;28;20038;-58
2022/04/16 06:32:58;;;;;;;27.73;17.48;;;;;;;16.63;47.35;103376.88;4951404;28;20336;-58
2022/04/16 06:35:24;;;;;;;25.73;17.33;;;;;;;16.42;47.68;103391.13;4943642;28;20126;-59
2022/04/16 06:37:49;;;;;;;24.05;17.00;;;;;;;17.11;46.36;103388.69;4958366;28;20046;-59
2022/04/16 06:40:15;;;;;;;23.23;17.42;;;;;;;17.17;47.31;103380.94;4941481;28;20082;-58
2022/04/16 06:42:41;;;;;;;24.10;17.20;;;;;;;17.96;43.38;103385.56;4958859;28;20070;-59
2022/04/16 06:45:14;;;;;;;24.35;15.90;;;;;;;18.73;42.70;103383.69;4950524;28;20794;-59
2022/04/16 06:47:40;;;;;;;24.23;16.95;;;;;;;17.82;43.68;103393.16;4958672;28;20349;-58
2022/04/16 06:50:09;;;;;;;25.15;17.63;;;;;;;17.86;44.52;103386.22;4941706;28;20337;-59
2022/04/16 06:52:35;;;;;;;25.90;17.90;;;;;;;17.36;45.29;103391.13;4950074;28;20042;-58
2022/04/16 06:55:00;;;;;;;25.42;17.67;;;;;;;17.61;44.35;103390.03;4936488;28;20051;-59
2022/04/16 06:57:26;;;;;;;25.77;18.20;;;;;;;17.64;45.51;103390.97;4941502;28;20309;-60
2022/04/16 06:59:51;;;;;;;24.27;18.05;;;;;;;18.34;43.52;103384.66;4954372;28;20125;-59
2022/04/16 07:02:17;;;;;;;25.58;17.90;;;;;;;17.74;44.21;103381.56;4949893;28;21096;-59
2022/04/16 07:04:42;;;;;;;25.55;18.50;;;;;;;17.78;44.43;103394.84;4957981;28;20050;-59
2022/04/16 07:07:11;;;;;;;24.42;18.35;;;;;;;18.34;43.31;103391.69;4936211;28;20444;-58
2022/04/16 07:09:39;;;;;;;24.45;18.15;;;;;;;18.05;43.62;103388.44;4948648;28;20218;-59
2022/04/16 07:12:10;;;;;;;26.58;19.20;;;;;;;17.76;44.34;103393.00;4939174;28;20620;-60
2022/04/16 07:14:36;;;;;;;25.25;18.33;;;;;;;17.97;45.00;103390.00;4951016;28;20475;-59
2022/04/16 07:17:02;;;;;;;28.02;19.27;;;;;;;18.61;43.43;103389.63;4954208;28;20050;-58
2022/04/16 07:19:29;;;;;;;25.05;18.50;;;;;;;19.02;41.59;103390.47;4923131;28;20049;-58
2022/04/16 07:21:55;;;;;;;27.65;19.27;;;;;;;18.46;42.79;103398.13;4952818;28;20354;-58
2022/04/16 07:24:21;;;;;;;24.67;18.63;;;;;;;18.43;43.87;103394.50;4947382;28;20496;-59
2022/04/16 07:26:47;;;;;;;24.40;17.73;;;;;;;18.85;42.98;103394.50;4961586;28;20124;-59
2022/04/16 07:29:13;;;;;;;24.27;18.50;;;;;;;18.28;43.47;103389.81;4945651;28;20113;-59
2022/04/16 07:31:39;;;;;;;27.20;19.17;;;;;;;17.06;47.91;103407.03;4960427;28;20073;-59
2022/04/16 07:34:04;;;;;;;28.83;19.70;;;;;;;16.76;47.88;103404.47;4947898;28;20740;-60
2022/04/16 07:36:30;;;;;;;28.10;19.90;;;;;;;16.99;46.66;103403.34;4948226;28;20051;-60
2022/04/16 07:38:55;;;;;;;27.73;20.20;;;;;;;16.79;48.07;103401.88;4953875;28;20078;-59
2022/04/16 07:41:20;;;;;;;31.27;20.23;;;;;;;17.30;46.79;103409.41;4950935;28;20113;-59
2022/04/16 07:43:46;;;;;;;28.58;20.30;;;;;;;17.48;47.01;103395.81;4952657;28;20129;-59
2022/04/16 07:46:11;;;;;;;29.90;20.58;;;;;;;17.78;46.31;103397.47;4947316;28;20228;-58
2022/04/16 07:48:37;;;;;;;29.20;20.65;;;;;;;17.57;46.77;103396.91;4958222;28;20137;-59
2022/04/16 07:51:13;;;;;;;29.23;20.15;;;;;;;17.76;46.15;103406.19;4952237;28;20042;-60
2022/04/16 07:53:38;;;;;;;27.23;19.83;;;;;;;18.19;44.93;103398.41;4953167;28;20616;-58
2022/04/16 07:56:04;;;;;;;27.17;19.65;;;;;;;18.33;44.91;103397.81;4948296;28;20050;-59
2022/04/16 07:58:29;;;;;;;27.75;20.00;;;;;;;18.54;45.15;103390.38;4943989;28;20058;-59
2022/04/16 08:00:54;;;;;;;26.85;19.05;;;;;;;17.43;46.28;103404.50;4949413;28;21516;-58
2022/04/16 08:03:20;;;;;;;29.30;20.25;;;;;;;17.12;47.53;103407.19;4952358;28;20041;-59
2022/04/16 08:05:45;;;;;;;30.30;20.48;;;;;;;16.80;48.35;103398.41;4946683;28;20482;-59
2022/04/16 08:08:11;;;;;;;31.23;21.90;;;;;;;16.54;50.21;103389.72;4936173;28;20144;-58
2022/04/16 08:10:37;;;;;;;30.42;22.30;;;;;;;16.60;50.14;103389.03;4956958;28;20150;-59
2022/04/16 08:13:05;;;;;;;34.05;22.13;;;;;;;16.32;50.95;103389.06;4956627;28;20054;-60
2022/04/16 08:15:31;;;;;;;30.63;21.50;;;;;;;16.20;50.93;103395.75;4944113;28;20080;-59
2022/04/16 08:17:56;;;;;;;31.77;21.30;;;;;;;15.63;51.90;103391.28;4949766;28;20914;-58
2022/04/16 08:20:22;;;;;;;32.03;21.55;;;;;;;15.59;52.97;103398.19;4946879;28;20633;-58
2022/04/16 08:22:48;;;;;;;33.55;20.80;;;;;;;16.21;52.06;103404.56;4955058;28;20038;-57
2022/04/16 08:27:49;;;;;;;31.88;20.98;;;;;;;16.23;51.00;103387.94;4948717;28;20116;-58
2022/04/16 08:30:16;;;;;;;30.13;20.65;;;;;;;16.19;50.56;103398.34;4939240;28;20047;-59
2022/04/16 08:32:43;;;;;;;30.83;20.70;;;;;;;16.07;51.26;103406.75;4962386;28;20193;-59
2022/04/16 08:35:13;;;;;;;31.75;21.17;;;;;;;16.06;50.95;103407.59;4937304;28;20065;-59
2022/04/16 08:37:40;;;;;;;29.88;20.02;;;;;;;16.09;50.91;103418.22;4952719;28;20062;-59
2022/04/16 08:40:06;;;;;;;34.15;21.40;;;;;;;16.28;51.99;103409.16;4939270;28;20514;-60
2022/04/16 08:42:37;;;;;;;30.23;20.38;;;;;;;16.21;51.79;103405.44;4953140;28;20491;-60
2022/04/16 08:45:05;;;;;;;30.27;20.23;;;;;;;16.14;51.83;103405.19;4941101;28;20069;-60
2022/04/16 08:47:31;;;;;;;32.75;21.00;;;;;;;16.19;51.64;103407.13;4951037;28;20564;-60
2022/04/16 08:49:59;;;;;;;32.50;21.60;;;;;;;16.33;51.63;103401.38;4950727;28;20089;-58
2022/04/16 08:52:29;;;;;;;31.58;20.52;;;;;;;16.29;51.05;103412.66;4944451;28;20049;-58
2022/04/16 08:54:55;;;;;;;29.83;20.00;;;;;;;16.59;51.17;103403.03;4955025;28;20528;-58
2022/04/16 08:57:21;;;;;;;30.83;20.20;;;;;;;16.48;51.05;103407.09;4954188;28;21025;-58
2022/04/16 08:59:54;;;;;;;32.58;20.13;;;;;;;16.95;51.72;103409.38;4956199;28;20043;-59
2022/04/16 09:02:21;;;;;;;30.52;20.38;;;;;;;16.99;50.50;103400.72;4955489;28;20828;-58
2022/04/16 09:04:47;;;;;;;28.85;20.00;;;;;;;16.47;50.24;103397.41;4958220;28;20703;-58
2022/04/16 09:07:13;;;;;;;32.50;19.90;;;;;;;16.60;51.18;103394.31;4958196;28;20204;-59
2022/04/16 09:09:39;;;;;;;33.28;20.20;;;;;;;16.68;50.08;103402.44;4961653;28;20045;-60
2022/04/16 09:12:18;;;;;;;27.27;18.98;;;;;;;16.94;50.25;103411.97;4948177;28;20081;-60
2022/04/16 09:14:45;;;;;;;29.30;19.02;;;;;;;16.70;49.91;103396.38;4957956;28;20050;-58
2022/04/16 09:17:15;;;;;;;29.75;18.55;;;;;;;16.85;48.76;103399.44;4952427;28;20073;-60
2022/04/16 09:19:41;;;;;;;27.08;18.50;;;;;;;16.91;49.86;103398.69;4948830;28;20077;-60
2022/04/16 09:22:08;;;;;;;29.15;19.15;;;;;;;17.02;49.63;103408.69;4932622;28;20033;-59
2022/04/16 09:24:47;;;;;;;26.15;18.27;;;;;;;17.15;49.46;103404.63;4958052;28;20038;-57
2022/04/16 09:27:12;;;;;;;27.30;18.45;;;;;;;17.58;48.07;103387.25;4952769;28;20595;-58
2022/04/16 09:29:40;;;;;;;27.92;19.13;;;;;;;17.30;48.80;103393.59;4952510;28;20050;-58
2022/04/16 09:32:06;;;;;;;26.83;18.40;;;;;;;17.26;48.95;103391.75;4949173;28;20124;-58
2022/04/16 09:34:31;;;;;;;26.63;18.27;;;;;;;16.83;50.01;103392.34;4951177;28;20037;-58
2022/04/16 09:36:57;;;;;;;26.25;18.58;;;;;;;16.75;49.66;103397.41;4954699;28;20042;-58
2022/04/16 09:39:22;;;;;;;28.92;19.00;;;;;;;16.65;50.62;103395.34;4962357;28;20080;-59
2022/04/16 09:41:51;;;;;;;27.08;18.60;;;;;;;16.88;50.17;103401.25;4951396;28;20035;-58
2022/04/16 09:44:22;;;;;;;27.58;18.77;;;;;;;17.04;49.55;103391.16;4944934;28;20084;-59
2022/04/16 09:46:49;;;;;;;26.92;18.40;;;;;;;17.26;49.71;103383.84;4954412;28;20066;-60
2022/04/16 09:49:16;;;;;;;27.35;18.08;;;;;;;17.53;48.27;103379.25;4943744;28;20418;-60
2022/04/16 09:51:43;;;;;;;27.33;18.33;;;;;;;17.59;49.10;103381.13;4943528;28;20022;-61
2022/04/16 09:54:09;;;;;;;26.15;18.92;;;;;;;17.34;48.33;103375.25;4947332;28;20042;-59
2022/04/16 09:56:36;;;;;;;25.67;17.70;;;;;;;17.47;47.86;103380.84;4946694;28;20053;-58
2022/04/16 09:59:07;;;;;;;24.52;16.63;;;;;;;17.46;47.09;103385.22;4954055;28;20050;-59
2022/04/16 10:01:33;;;;;;;25.63;16.33;;;;;;;17.77;47.68;103384.25;4953125;28;20042;-58
2022/04/16 10:04:03;;;;;;;25.35;17.67;;;;;;;17.84;47.00;103379.16;4945881;28;20046;-61
2022/04/16 10:06:29;;;;;;;25.42;16.95;;;;;;;17.94;48.44;103382.88;4955547;28;21253;-60
2022/04/16 10:08:56;;;;;;;25.17;17.45;;;;;;;18.01;46.82;103379.53;4946451;28;20046;-59
2022/04/16 10:11:42;;;;;;;23.45;16.80;;;;;;;18.20;47.41;103387.00;4950256;28;20050;-58
2022/04/16 10:14:38;;;;;;;25.52;17.45;;;;;;;18.68;47.42;103382.72;4953696;28;20041;-58
2022/04/16 10:17:18;;;;;;;25.88;16.30;;;;;;;18.48;44.41;103377.91;4910995;28;20094;-58
2022/04/16 10:19:47;;;;;;;25.30;16.58;;;;;;;18.19;46.30;103379.03;4951209;28;20082;-60
2022/04/16 10:22:26;;;;;;;23.88;16.95;;;;;;;18.05;47.46;103381.38;4950053;28;20948;-58
2022/04/16 10:24:56;;;;;;;21.55;15.27;;;;;;;18.43;44.78;103368.09;4955081;28;20053;-58
2022/04/16 10:27:25;;;;;;;23.13;15.52;;;;;;;18.22;45.91;103381.75;4947354;28;20045;-58
2022/04/16 10:29:50;;;;;;;23.52;15.52;;;;;;;18.44;46.43;103372.53;4938883;28;20162;-59
2022/04/16 10:32:16;;;;;;;21.42;14.07;;;;;;;18.37;45.00;103378.53;4942764;28;20766;-56
2022/04/16 10:34:43;;;;;;;29.08;15.95;;;;;;;18.16;45.18;103385.16;4957060;28;20726;-59
2022/04/16 10:37:20;;;;;;;23.08;15.57;;;;;;;17.84;46.50;103388.81;4933712;28;20093;-58
2022/04/16 10:39:46;;;;;;;19.08;14.15;;;;;;;17.99;46.42;103383.00;4942706;28;20043;-59
2022/04/16 10:42:11;;;;;;;20.45;12.65;;;;;;;18.08;44.85;103378.81;4945577;28;21246;-58
2022/04/16 10:44:45;;;;;;;21.95;14.13;;;;;;;17.60;45.57;103372.38;4949344;28;20556;-59
2022/04/16 10:47:14;;;;;;;18.73;13.57;;;;;;;17.61;45.38;103382.09;4942756;28;20086;-59
2022/04/16 10:49:41;;;;;;;22.08;15.00;;;;;;;17.89;45.47;103373.06;4952484;28;20054;-59
2022/04/16 10:52:28;;;;;;;20.25;13.18;;;;;;;17.43;45.33;103388.69;4942865;28;20133;-59
2022/04/16 10:55:01;;;;;;;19.75;11.52;;;;;;;17.90;44.61;103372.22;4957363;28;20096;-60
2022/04/16 10:57:31;;;;;;;17.02;11.32;;;;;;;17.89;44.12;103370.44;4949875;28;20055;-59
2022/04/16 10:59:57;;;;;;;18.63;10.50;;;;;;;18.05;44.15;103364.66;4952574;28;20081;-58
2022/04/16 11:02:23;;;;;;;15.98;10.35;;;;;;;18.09;42.31;103366.50;4945642;28;20509;-60
2022/04/16 11:05:14;;;;;;;14.73;9.52;;;;;;;18.41;42.39;103381.28;4956969;28;20085;-59
2022/04/16 11:07:41;;;;;;;15.27;10.68;;;;;;;18.24;41.89;103366.81;4955738;28;20042;-59
2022/04/16 11:10:11;;;;;;;16.77;10.18;;;;;;;18.29;42.86;103367.84;4940741;28;20038;-58
2022/04/16 11:12:38;;;;;;;18.80;11.43;;;;;;;18.37;43.25;103366.22;4950446;28;20128;-61
2022/04/16 11:15:08;;;;;;;16.35;11.23;;;;;;;18.10;43.30;103370.94;4957908;28;20064;-60
2022/04/16 11:17:33;;;;;;;16.52;10.98;;;;;;;18.50;42.56;103375.28;4951099;28;20038;-58
2022/04/16 11:20:03;;;;;;;19.13;10.52;;;;;;;18.25;42.79;103373.88;4947023;28;20041;-59
2022/04/16 11:22:29;;;;;;;17.95;10.70;;;;;;;18.15;42.43;103364.91;4955750;28;20048;-59
2022/04/16 11:24:55;;;;;;;13.18;9.55;;;;;;;17.92;42.95;103366.13;4951003;28;20042;-59